sensor_id;sensor_type;location;lat;lon;timestamp;pressure;altitude;pressure_sealevel;temperature;humidity
71151;BME280;59071;42.138;24.768;2024-02-28T00:00:23;100159.84;;;7.42;86.20
71151;BME280;59071;42.138;24.768;2024-02-28T00:02:48;100165.41;;;7.56;86.17
71151;BME280;59071;42.138;24.768;2024-02-28T00:05:14;100167.09;;;7.49;86.68
71151;BME280;59071;42.138;24.768;2024-02-28T00:07:39;100173.41;;;7.71;85.47
71151;BME280;59071;42.138;24.768;2024-02-28T00:10:05;100179.72;;;7.70;85.49
71151;BME280;59071;42.138;24.768;2024-02-28T00:12:30;100149.81;;;7.61;85.12
71151;BME280;59071;42.138;24.768;2024-02-28T00:14:56;100185.53;;;7.65;85.64
71151;BME280;59071;42.138;24.768;2024-02-28T00:17:21;100154.56;;;7.34;86.38
71151;BME280;59071;42.138;24.768;2024-02-28T00:19:46;100180.44;;;7.55;86.35
71151;BME280;59071;42.138;24.768;2024-02-28T00:22:12;100181.84;;;7.74;85.49
71151;BME280;59071;42.138;24.768;2024-02-28T00:24:37;100187.47;;;7.79;85.51
71151;BME280;59071;42.138;24.768;2024-02-28T00:27:02;100184.22;;;7.69;85.07
71151;BME280;59071;42.138;24.768;2024-02-28T00:29:28;100191.16;;;7.70;85.54
71151;BME280;59071;42.138;24.768;2024-02-28T00:31:53;100189.53;;;7.61;85.81
71151;BME280;59071;42.138;24.768;2024-02-28T00:34:19;100185.16;;;7.45;86.13
71151;BME280;59071;42.138;24.768;2024-02-28T00:36:44;100189.03;;;7.66;85.75
71151;BME280;59071;42.138;24.768;2024-02-28T00:39:10;100199.63;;;7.66;84.76
71151;BME280;59071;42.138;24.768;2024-02-28T00:41:36;100194.13;;;7.36;86.68
71151;BME280;59071;42.138;24.768;2024-02-28T00:44:02;100194.44;;;7.41;86.57
71151;BME280;59071;42.138;24.768;2024-02-28T00:46:28;100192.22;;;7.53;85.81
71151;BME280;59071;42.138;24.768;2024-02-28T00:48:53;100193.41;;;7.50;85.87
71151;BME280;59071;42.138;24.768;2024-02-28T00:51:18;100188.22;;;7.57;85.97
71151;BME280;59071;42.138;24.768;2024-02-28T00:53:44;100201.13;;;7.60;85.11
71151;BME280;59071;42.138;24.768;2024-02-28T00:56:09;100201.41;;;7.73;85.64
71151;BME280;59071;42.138;24.768;2024-02-28T00:58:34;100200.09;;;7.69;84.71
71151;BME280;59071;42.138;24.768;2024-02-28T01:01:00;100195.03;;;7.51;85.72
71151;BME280;59071;42.138;24.768;2024-02-28T01:03:25;100198.94;;;7.72;84.28
71151;BME280;59071;42.138;24.768;2024-02-28T01:05:50;100206.06;;;7.63;85.22
71151;BME280;59071;42.138;24.768;2024-02-28T01:08:16;100196.59;;;7.69;84.88
71151;BME280;59071;42.138;24.768;2024-02-28T01:10:45;100194.13;;;7.67;85.19
71151;BME280;59071;42.138;24.768;2024-02-28T01:13:11;100196.78;;;7.67;85.23
71151;BME280;59071;42.138;24.768;2024-02-28T01:15:36;100194.53;;;7.56;85.25
71151;BME280;59071;42.138;24.768;2024-02-28T01:18:02;100199.94;;;7.31;86.29
71151;BME280;59071;42.138;24.768;2024-02-28T01:20:27;100205.25;;;7.62;85.10
71151;BME280;59071;42.138;24.768;2024-02-28T01:22:53;100208.56;;;7.64;84.93
71151;BME280;59071;42.138;24.768;2024-02-28T01:25:18;100196.88;;;7.51;85.27
71151;BME280;59071;42.138;24.768;2024-02-28T01:27:44;100196.88;;;7.51;85.68
71151;BME280;59071;42.138;24.768;2024-02-28T01:30:09;100190.66;;;7.27;86.11
71151;BME280;59071;42.138;24.768;2024-02-28T01:32:35;100191.16;;;7.31;86.08
71151;BME280;59071;42.138;24.768;2024-02-28T01:35:02;100183.97;;;7.48;84.84
71151;BME280;59071;42.138;24.768;2024-02-28T01:37:28;100192.28;;;7.44;85.04
71151;BME280;59071;42.138;24.768;2024-02-28T01:39:53;100199.28;;;7.21;85.96
71151;BME280;59071;42.138;24.768;2024-02-28T01:42:19;100205.63;;;7.03;86.73
71151;BME280;59071;42.138;24.768;2024-02-28T01:44:47;100211.25;;;7.09;87.16
71151;BME280;59071;42.138;24.768;2024-02-28T01:47:13;100216.38;;;7.02;87.63
71151;BME280;59071;42.138;24.768;2024-02-28T01:49:39;100208.94;;;7.05;87.12
71151;BME280;59071;42.138;24.768;2024-02-28T01:52:05;100216.53;;;7.09;87.20
71151;BME280;59071;42.138;24.768;2024-02-28T01:54:33;100207.44;;;7.11;86.68
71151;BME280;59071;42.138;24.768;2024-02-28T01:57:00;100215.22;;;7.04;87.69
71151;BME280;59071;42.138;24.768;2024-02-28T01:59:26;100212.31;;;7.31;85.90
71151;BME280;59071;42.138;24.768;2024-02-28T02:01:51;100210.69;;;7.30;85.49
71151;BME280;59071;42.138;24.768;2024-02-28T02:04:17;100215.22;;;7.13;85.54
71151;BME280;59071;42.138;24.768;2024-02-28T02:06:43;100215.53;;;7.10;86.07
71151;BME280;59071;42.138;24.768;2024-02-28T02:09:10;100213.44;;;6.89;87.13
71151;BME280;59071;42.138;24.768;2024-02-28T02:11:36;100224.84;;;6.97;86.84
71151;BME280;59071;42.138;24.768;2024-02-28T02:14:02;100226.81;;;7.03;86.24
71151;BME280;59071;42.138;24.768;2024-02-28T02:16:27;100223.66;;;7.00;86.85
71151;BME280;59071;42.138;24.768;2024-02-28T02:18:53;100223.00;;;6.81;87.69
71151;BME280;59071;42.138;24.768;2024-02-28T02:21:20;100235.78;;;6.78;87.88
71151;BME280;59071;42.138;24.768;2024-02-28T02:23:47;100240.03;;;6.87;86.93
71151;BME280;59071;42.138;24.768;2024-02-28T02:26:13;100243.19;;;6.99;86.73
71151;BME280;59071;42.138;24.768;2024-02-28T02:28:38;100240.56;;;6.99;86.85
71151;BME280;59071;42.138;24.768;2024-02-28T02:31:04;100246.19;;;6.88;86.80
71151;BME280;59071;42.138;24.768;2024-02-28T02:33:29;100219.72;;;6.79;86.64
71151;BME280;59071;42.138;24.768;2024-02-28T02:35:54;100252.63;;;6.77;88.07
71151;BME280;59071;42.138;24.768;2024-02-28T02:38:20;100259.41;;;6.88;87.42
71151;BME280;59071;42.138;24.768;2024-02-28T02:40:49;100265.66;;;6.95;87.06
71151;BME280;59071;42.138;24.768;2024-02-28T02:43:15;100249.63;;;7.04;85.80
71151;BME280;59071;42.138;24.768;2024-02-28T02:45:40;100260.22;;;7.04;86.76
71151;BME280;59071;42.138;24.768;2024-02-28T02:48:06;100269.81;;;6.97;86.10
71151;BME280;59071;42.138;24.768;2024-02-28T02:50:31;100265.66;;;6.95;86.13
71151;BME280;59071;42.138;24.768;2024-02-28T02:52:56;100266.81;;;7.17;85.29
71151;BME280;59071;42.138;24.768;2024-02-28T02:55:22;100266.78;;;7.25;84.79
71151;BME280;59071;42.138;24.768;2024-02-28T02:57:47;100272.88;;;7.42;83.51
71151;BME280;59071;42.138;24.768;2024-02-28T03:00:12;100264.13;;;7.33;83.45
71151;BME280;59071;42.138;24.768;2024-02-28T03:02:38;100261.53;;;6.92;85.64
71151;BME280;59071;42.138;24.768;2024-02-28T03:05:05;100261.38;;;7.10;85.55
71151;BME280;59071;42.138;24.768;2024-02-28T03:07:31;100272.13;;;7.09;85.05
71151;BME280;59071;42.138;24.768;2024-02-28T03:09:57;100268.63;;;7.08;85.57
71151;BME280;59071;42.138;24.768;2024-02-28T03:12:22;100264.03;;;6.94;86.23
71151;BME280;59071;42.138;24.768;2024-02-28T03:14:48;100266.03;;;6.92;86.13
71151;BME280;59071;42.138;24.768;2024-02-28T03:17:14;100265.03;;;7.01;85.67
71151;BME280;59071;42.138;24.768;2024-02-28T03:19:41;100271.47;;;6.98;85.79
71151;BME280;59071;42.138;24.768;2024-02-28T03:22:06;100267.00;;;6.82;86.83
71151;BME280;59071;42.138;24.768;2024-02-28T03:24:31;100274.78;;;6.92;86.63
71151;BME280;59071;42.138;24.768;2024-02-28T03:27:00;100272.13;;;7.09;85.88
71151;BME280;59071;42.138;24.768;2024-02-28T03:29:25;100270.31;;;6.93;86.36
71151;BME280;59071;42.138;24.768;2024-02-28T03:31:50;100271.63;;;7.05;86.51
71151;BME280;59071;42.138;24.768;2024-02-28T03:34:16;100268.00;;;6.81;86.71
71151;BME280;59071;42.138;24.768;2024-02-28T03:36:41;100276.63;;;6.83;87.23
71151;BME280;59071;42.138;24.768;2024-02-28T03:39:06;100277.75;;;6.81;88.06
71151;BME280;59071;42.138;24.768;2024-02-28T03:41:32;100271.31;;;6.92;87.53
71151;BME280;59071;42.138;24.768;2024-02-28T03:43:57;100263.22;;;6.93;87.38
71151;BME280;59071;42.138;24.768;2024-02-28T03:46:22;100266.69;;;6.69;88.33
71151;BME280;59071;42.138;24.768;2024-02-28T03:48:48;100271.47;;;6.74;87.80
71151;BME280;59071;42.138;24.768;2024-02-28T03:51:13;100272.28;;;6.91;87.68
71151;BME280;59071;42.138;24.768;2024-02-28T03:53:40;100269.50;;;6.68;88.36
71151;BME280;59071;42.138;24.768;2024-02-28T03:56:06;100271.78;;;6.62;88.98
71151;BME280;59071;42.138;24.768;2024-02-28T03:58:31;100265.72;;;6.70;88.47
71151;BME280;59071;42.138;24.768;2024-02-28T04:00:56;100271.31;;;6.75;88.39
71151;BME280;59071;42.138;24.768;2024-02-28T04:03:22;100265.84;;;6.93;86.76
71151;BME280;59071;42.138;24.768;2024-02-28T04:05:47;100279.59;;;6.97;86.93
71151;BME280;59071;42.138;24.768;2024-02-28T04:08:12;100287.16;;;7.08;86.83
71151;BME280;59071;42.138;24.768;2024-02-28T04:10:38;100282.72;;;6.92;87.04
71151;BME280;59071;42.138;24.768;2024-02-28T04:13:04;100291.81;;;6.65;88.63
71151;BME280;59071;42.138;24.768;2024-02-28T04:15:30;100290.34;;;6.71;88.31
71151;BME280;59071;42.138;24.768;2024-02-28T04:17:55;100287.34;;;6.74;88.26
71151;BME280;59071;42.138;24.768;2024-02-28T04:20:21;100285.03;;;6.38;89.07
71151;BME280;59071;42.138;24.768;2024-02-28T04:22:46;100293.94;;;6.45;89.56
71151;BME280;59071;42.138;24.768;2024-02-28T04:25:12;100289.84;;;6.59;88.70
71151;BME280;59071;42.138;24.768;2024-02-28T04:27:38;100293.63;;;6.89;87.31
71151;BME280;59071;42.138;24.768;2024-02-28T04:30:04;100289.97;;;6.74;87.33
71151;BME280;59071;42.138;24.768;2024-02-28T04:32:30;100287.81;;;7.02;86.24
71151;BME280;59071;42.138;24.768;2024-02-28T04:34:55;100288.66;;;6.53;87.09
71151;BME280;59071;42.138;24.768;2024-02-28T04:37:21;100281.38;;;6.39;88.66
71151;BME280;59071;42.138;24.768;2024-02-28T04:39:46;100278.44;;;6.75;87.95
71151;BME280;59071;42.138;24.768;2024-02-28T04:42:12;100280.06;;;6.68;86.68
71151;BME280;59071;42.138;24.768;2024-02-28T04:44:38;100289.34;;;6.88;86.30
71151;BME280;59071;42.138;24.768;2024-02-28T04:47:03;100291.63;;;7.08;90.57
71151;BME280;59071;42.138;24.768;2024-02-28T04:49:29;100283.72;;;6.67;89.00
71151;BME280;59071;42.138;24.768;2024-02-28T04:51:55;100299.59;;;6.67;89.64
71151;BME280;59071;42.138;24.768;2024-02-28T04:54:20;100294.94;;;7.10;93.69
71151;BME280;59071;42.138;24.768;2024-02-28T04:56:45;100302.22;;;6.58;89.40
71151;BME280;59071;42.138;24.768;2024-02-28T04:59:12;100303.69;;;6.53;89.28
71151;BME280;59071;42.138;24.768;2024-02-28T05:01:40;100298.25;;;6.62;87.83
71151;BME280;59071;42.138;24.768;2024-02-28T05:04:07;100300.91;;;6.71;87.35
71151;BME280;59071;42.138;24.768;2024-02-28T05:06:33;100300.25;;;6.77;87.04
71151;BME280;59071;42.138;24.768;2024-02-28T05:08:58;100299.25;;;6.70;86.99
71151;BME280;59071;42.138;24.768;2024-02-28T05:11:24;100293.63;;;6.56;87.87
71151;BME280;59071;42.138;24.768;2024-02-28T05:13:49;100299.06;;;6.46;87.74
71151;BME280;59071;42.138;24.768;2024-02-28T05:16:15;100284.53;;;6.51;89.22
71151;BME280;59071;42.138;24.768;2024-02-28T05:18:41;100294.81;;;6.70;87.14
71151;BME280;59071;42.138;24.768;2024-02-28T05:21:07;100308.81;;;6.54;87.77
71151;BME280;59071;42.138;24.768;2024-02-28T05:23:32;100312.59;;;6.43;87.47
71151;BME280;59071;42.138;24.768;2024-02-28T05:25:58;100319.19;;;6.39;87.97
71151;BME280;59071;42.138;24.768;2024-02-28T05:28:29;100315.88;;;6.29;87.83
71151;BME280;59071;42.138;24.768;2024-02-28T05:30:54;100326.09;;;6.24;88.39
71151;BME280;59071;42.138;24.768;2024-02-28T05:33:20;100330.44;;;6.33;89.04
71151;BME280;59071;42.138;24.768;2024-02-28T05:35:45;100330.63;;;6.48;87.83
71151;BME280;59071;42.138;24.768;2024-02-28T05:38:10;100331.25;;;6.34;89.20
71151;BME280;59071;42.138;24.768;2024-02-28T05:40:36;100337.19;;;6.28;88.84
71151;BME280;59071;42.138;24.768;2024-02-28T05:43:01;100339.16;;;6.25;88.96
71151;BME280;59071;42.138;24.768;2024-02-28T05:45:27;100346.38;;;6.82;99.50
71151;BME280;59071;42.138;24.768;2024-02-28T05:47:52;100345.00;;;7.60;91.70
71151;BME280;59071;42.138;24.768;2024-02-28T05:50:18;100338.50;;;8.19;85.52
71151;BME280;59071;42.138;24.768;2024-02-28T05:52:43;100335.84;;;8.50;80.74
71151;BME280;59071;42.138;24.768;2024-02-28T05:55:08;100349.47;;;8.47;79.35
71151;BME280;59071;42.138;24.768;2024-02-28T05:57:34;100348.00;;;8.68;77.77
71151;BME280;59071;42.138;24.768;2024-02-28T05:59:59;100350.44;;;8.77;76.78
71151;BME280;59071;42.138;24.768;2024-02-28T06:02:24;100355.97;;;8.91;75.14
71151;BME280;59071;42.138;24.768;2024-02-28T06:04:50;100364.06;;;8.97;75.58
71151;BME280;59071;42.138;24.768;2024-02-28T06:07:15;100356.41;;;9.03;74.98
71151;BME280;59071;42.138;24.768;2024-02-28T06:09:41;100355.78;;;9.15;74.43
71151;BME280;59071;42.138;24.768;2024-02-28T06:12:06;100367.56;;;9.36;74.25
71151;BME280;59071;42.138;24.768;2024-02-28T06:14:32;100364.00;;;9.44;73.78
71151;BME280;59071;42.138;24.768;2024-02-28T06:16:57;100367.09;;;9.32;73.93
71151;BME280;59071;42.138;24.768;2024-02-28T06:19:22;100368.41;;;9.51;73.30
71151;BME280;59071;42.138;24.768;2024-02-28T06:21:48;100362.28;;;9.51;71.83
71151;BME280;59071;42.138;24.768;2024-02-28T06:24:13;100366.25;;;9.85;71.59
71151;BME280;59071;42.138;24.768;2024-02-28T06:26:38;100364.50;;;9.92;71.75
71151;BME280;59071;42.138;24.768;2024-02-28T06:29:04;100375.66;;;9.57;72.20
71151;BME280;59071;42.138;24.768;2024-02-28T06:31:31;100379.84;;;9.37;74.45
71151;BME280;59071;42.138;24.768;2024-02-28T06:33:57;100376.97;;;9.62;73.69
71151;BME280;59071;42.138;24.768;2024-02-28T06:36:22;100378.13;;;9.59;73.28
71151;BME280;59071;42.138;24.768;2024-02-28T06:38:48;100373.00;;;9.72;74.08
71151;BME280;59071;42.138;24.768;2024-02-28T06:41:13;100383.00;;;10.15;72.73
71151;BME280;59071;42.138;24.768;2024-02-28T06:43:38;100383.66;;;10.32;72.21
71151;BME280;59071;42.138;24.768;2024-02-28T06:46:04;100387.19;;;10.54;71.86
71151;BME280;59071;42.138;24.768;2024-02-28T06:48:30;100379.22;;;10.75;71.09
71151;BME280;59071;42.138;24.768;2024-02-28T06:50:56;100392.72;;;11.17;68.52
71151;BME280;59071;42.138;24.768;2024-02-28T06:53:22;100392.78;;;11.24;69.54
71151;BME280;59071;42.138;24.768;2024-02-28T06:55:48;100400.06;;;11.65;67.01
71151;BME280;59071;42.138;24.768;2024-02-28T06:58:14;100400.13;;;11.71;66.79
71151;BME280;59071;42.138;24.768;2024-02-28T07:00:39;100390.56;;;11.27;66.95
71151;BME280;59071;42.138;24.768;2024-02-28T07:03:05;100395.81;;;11.70;66.52
71151;BME280;59071;42.138;24.768;2024-02-28T07:05:30;100395.19;;;11.97;65.48
71151;BME280;59071;42.138;24.768;2024-02-28T07:07:55;100399.78;;;12.09;64.99
71151;BME280;59071;42.138;24.768;2024-02-28T07:10:21;100395.38;;;11.95;64.43
71151;BME280;59071;42.138;24.768;2024-02-28T07:12:46;100403.19;;;11.97;64.51
71151;BME280;59071;42.138;24.768;2024-02-28T07:15:11;100412.44;;;12.01;69.61
71151;BME280;59071;42.138;24.768;2024-02-28T07:17:37;100405.41;;;11.93;66.26
71151;BME280;59071;42.138;24.768;2024-02-28T07:20:02;100407.59;;;12.11;64.34
71151;BME280;59071;42.138;24.768;2024-02-28T07:22:28;100407.66;;;12.24;64.12
71151;BME280;59071;42.138;24.768;2024-02-28T07:24:53;100407.03;;;12.29;63.69
71151;BME280;59071;42.138;24.768;2024-02-28T07:27:18;100402.94;;;12.81;62.11
71151;BME280;59071;42.138;24.768;2024-02-28T07:29:44;100408.09;;;13.03;60.54
71151;BME280;59071;42.138;24.768;2024-02-28T07:32:09;100407.28;;;13.09;60.37
71151;BME280;59071;42.138;24.768;2024-02-28T07:34:35;100420.47;;;13.30;60.40
71151;BME280;59071;42.138;24.768;2024-02-28T07:37:00;100420.03;;;13.87;58.22
71151;BME280;59071;42.138;24.768;2024-02-28T07:39:26;100414.50;;;13.55;58.34
71151;BME280;59071;42.138;24.768;2024-02-28T07:41:52;100415.34;;;13.69;58.69
71151;BME280;59071;42.138;24.768;2024-02-28T07:44:18;100406.59;;;14.20;58.63
71151;BME280;59071;42.138;24.768;2024-02-28T07:46:43;100412.69;;;14.86;55.39
71151;BME280;59071;42.138;24.768;2024-02-28T07:49:09;100412.59;;;15.31;54.21
71151;BME280;59071;42.138;24.768;2024-02-28T07:51:36;100410.09;;;15.61;54.19
71151;BME280;59071;42.138;24.768;2024-02-28T07:54:02;100405.59;;;15.99;51.91
71151;BME280;59071;42.138;24.768;2024-02-28T07:56:29;100401.63;;;16.57;51.54
71151;BME280;59071;42.138;24.768;2024-02-28T07:58:54;100393.44;;;16.33;51.53
71151;BME280;59071;42.138;24.768;2024-02-28T08:01:20;100387.50;;;16.61;50.83
71151;BME280;59071;42.138;24.768;2024-02-28T08:03:47;100401.09;;;16.97;49.85
71151;BME280;59071;42.138;24.768;2024-02-28T08:06:12;100402.78;;;17.22;49.06
71151;BME280;59071;42.138;24.768;2024-02-28T08:08:38;100395.81;;;17.44;48.90
71151;BME280;59071;42.138;24.768;2024-02-28T08:11:03;100404.19;;;17.36;48.16
71151;BME280;59071;42.138;24.768;2024-02-28T08:13:29;100399.78;;;17.65;48.54
71151;BME280;59071;42.138;24.768;2024-02-28T08:15:55;100398.47;;;17.79;47.94
71151;BME280;59071;42.138;24.768;2024-02-28T08:18:21;100393.78;;;18.22;46.57
71151;BME280;59071;42.138;24.768;2024-02-28T08:20:46;100396.38;;;18.46;45.21
71151;BME280;59071;42.138;24.768;2024-02-28T08:23:11;100389.16;;;18.34;45.09
71151;BME280;59071;42.138;24.768;2024-02-28T08:25:37;100394.03;;;18.49;45.32
71151;BME280;59071;42.138;24.768;2024-02-28T08:28:03;100394.19;;;18.31;45.72
71151;BME280;59071;42.138;24.768;2024-02-28T08:30:28;100388.28;;;18.17;46.47
71151;BME280;59071;42.138;24.768;2024-02-28T08:32:54;100383.91;;;18.28;45.37
71151;BME280;59071;42.138;24.768;2024-02-28T08:35:19;100388.16;;;18.12;47.44
71151;BME280;59071;42.138;24.768;2024-02-28T08:37:45;100390.47;;;18.32;46.33
71151;BME280;59071;42.138;24.768;2024-02-28T08:40:10;100387.72;;;18.44;45.90
71151;BME280;59071;42.138;24.768;2024-02-28T08:42:36;100391.81;;;18.06;46.36
71151;BME280;59071;42.138;24.768;2024-02-28T08:45:02;100392.84;;;18.57;45.99
71151;BME280;59071;42.138;24.768;2024-02-28T08:47:29;100392.38;;;19.23;45.78
71151;BME280;59071;42.138;24.768;2024-02-28T08:49:54;100395.94;;;19.40;43.97
71151;BME280;59071;42.138;24.768;2024-02-28T08:52:21;100397.13;;;18.70;45.96
71151;BME280;59071;42.138;24.768;2024-02-28T08:54:46;100396.50;;;18.80;44.60
71151;BME280;59071;42.138;24.768;2024-02-28T08:57:13;100383.03;;;18.51;46.24
71151;BME280;59071;42.138;24.768;2024-02-28T08:59:38;100385.25;;;19.00;45.56
71151;BME280;59071;42.138;24.768;2024-02-28T09:02:05;100387.16;;;18.99;44.58
71151;BME280;59071;42.138;24.768;2024-02-28T09:04:31;100384.56;;;19.38;44.79
71151;BME280;59071;42.138;24.768;2024-02-28T09:06:56;100389.13;;;19.38;45.48
71151;BME280;59071;42.138;24.768;2024-02-28T09:09:21;100388.53;;;19.52;45.08
71151;BME280;59071;42.138;24.768;2024-02-28T09:11:47;100388.69;;;19.63;44.06
71151;BME280;59071;42.138;24.768;2024-02-28T09:14:12;100377.84;;;19.07;45.87
71151;BME280;59071;42.138;24.768;2024-02-28T09:16:37;100378.31;;;19.21;45.59
71151;BME280;59071;42.138;24.768;2024-02-28T09:19:04;100372.34;;;19.36;45.21
71151;BME280;59071;42.138;24.768;2024-02-28T09:21:29;100368.28;;;18.99;45.82
71151;BME280;59071;42.138;24.768;2024-02-28T09:23:54;100371.38;;;18.91;45.79
71151;BME280;59071;42.138;24.768;2024-02-28T09:26:20;100378.47;;;18.80;45.74
71151;BME280;59071;42.138;24.768;2024-02-28T09:28:45;100375.03;;;18.85;45.36
71151;BME280;59071;42.138;24.768;2024-02-28T09:31:11;100366.22;;;18.89;46.08
71151;BME280;59071;42.138;24.768;2024-02-28T09:33:37;100363.63;;;19.11;45.05
71151;BME280;59071;42.138;24.768;2024-02-28T09:36:03;100364.72;;;19.49;45.26
71151;BME280;59071;42.138;24.768;2024-02-28T09:38:29;100365.13;;;19.58;44.11
71151;BME280;59071;42.138;24.768;2024-02-28T09:40:54;100352.09;;;19.16;45.45
71151;BME280;59071;42.138;24.768;2024-02-28T09:45:54;100343.06;;;19.61;43.16
71151;BME280;59071;42.138;24.768;2024-02-28T09:48:23;100357.47;;;19.50;43.82
71151;BME280;59071;42.138;24.768;2024-02-28T09:50:48;100347.13;;;19.08;44.97
71151;BME280;59071;42.138;24.768;2024-02-28T09:53:14;100343.75;;;19.18;45.60
71151;BME280;59071;42.138;24.768;2024-02-28T09:55:39;100341.63;;;19.37;44.65
71151;BME280;59071;42.138;24.768;2024-02-28T09:58:05;100337.41;;;18.78;45.56
71151;BME280;59071;42.138;24.768;2024-02-28T10:00:33;100324.72;;;18.62;46.13
71151;BME280;59071;42.138;24.768;2024-02-28T10:03:00;100329.13;;;18.51;47.34
71151;BME280;59071;42.138;24.768;2024-02-28T10:05:26;100323.97;;;19.12;46.02
71151;BME280;59071;42.138;24.768;2024-02-28T10:07:53;100323.19;;;19.50;45.42
71151;BME280;59071;42.138;24.768;2024-02-28T10:10:20;100320.19;;;18.96;46.32
71151;BME280;59071;42.138;24.768;2024-02-28T10:12:45;100316.44;;;19.70;44.68
71151;BME280;59071;42.138;24.768;2024-02-28T10:15:11;100326.88;;;19.61;44.34
71151;BME280;59071;42.138;24.768;2024-02-28T10:17:36;100310.56;;;18.09;47.69
71151;BME280;59071;42.138;24.768;2024-02-28T10:20:02;100313.00;;;19.19;45.42
71151;BME280;59071;42.138;24.768;2024-02-28T10:22:34;100310.63;;;19.39;45.79
71151;BME280;59071;42.138;24.768;2024-02-28T10:25:00;100307.31;;;19.54;44.79
71151;BME280;59071;42.138;24.768;2024-02-28T10:27:26;100300.75;;;18.94;46.74
71151;BME280;59071;42.138;24.768;2024-02-28T10:29:51;100290.84;;;18.66;47.12
71151;BME280;59071;42.138;24.768;2024-02-28T10:32:16;100293.94;;;18.74;46.55
71151;BME280;59071;42.138;24.768;2024-02-28T10:34:42;100296.66;;;19.25;46.78
71151;BME280;59071;42.138;24.768;2024-02-28T10:37:09;100294.06;;;19.91;44.23
71151;BME280;59071;42.138;24.768;2024-02-28T10:39:35;100291.25;;;19.42;44.74
71151;BME280;59071;42.138;24.768;2024-02-28T10:42:02;100283.34;;;19.19;45.06
71151;BME280;59071;42.138;24.768;2024-02-28T10:44:29;100280.81;;;19.12;45.26
71151;BME280;59071;42.138;24.768;2024-02-28T10:46:56;100277.00;;;18.91;45.55
71151;BME280;59071;42.138;24.768;2024-02-28T10:49:21;100275.75;;;18.82;46.21
71151;BME280;59071;42.138;24.768;2024-02-28T10:51:48;100264.34;;;18.46;47.22
71151;BME280;59071;42.138;24.768;2024-02-28T10:54:15;100254.66;;;19.12;46.08
71151;BME280;59071;42.138;24.768;2024-02-28T10:56:41;100249.78;;;19.92;44.38
71151;BME280;59071;42.138;24.768;2024-02-28T10:59:09;100253.16;;;20.05;43.66
71151;BME280;59071;42.138;24.768;2024-02-28T11:01:44;100253.19;;;19.83;44.06
71151;BME280;59071;42.138;24.768;2024-02-28T11:04:10;100247.81;;;19.66;44.84
71151;BME280;59071;42.138;24.768;2024-02-28T11:06:48;100241.66;;;19.92;43.95
71151;BME280;59071;42.138;24.768;2024-02-28T11:09:19;100243.06;;;20.22;42.99
71151;BME280;59071;42.138;24.768;2024-02-28T11:11:44;100242.78;;;19.97;42.88
71151;BME280;59071;42.138;24.768;2024-02-28T11:14:14;100232.00;;;19.52;44.08
71151;BME280;59071;42.138;24.768;2024-02-28T11:16:40;100238.19;;;19.31;45.21
71151;BME280;59071;42.138;24.768;2024-02-28T11:19:07;100231.50;;;19.56;44.68
71151;BME280;59071;42.138;24.768;2024-02-28T11:21:34;100226.34;;;19.76;44.78
71151;BME280;59071;42.138;24.768;2024-02-28T11:24:01;100225.94;;;19.84;43.88
71151;BME280;59071;42.138;24.768;2024-02-28T11:26:27;100225.66;;;19.64;44.64
71151;BME280;59071;42.138;24.768;2024-02-28T11:28:54;100215.47;;;19.71;43.77
71151;BME280;59071;42.138;24.768;2024-02-28T11:31:20;100213.59;;;20.21;42.70
71151;BME280;59071;42.138;24.768;2024-02-28T11:33:46;100211.25;;;20.02;43.01
71151;BME280;59071;42.138;24.768;2024-02-28T11:36:11;100216.44;;;19.60;43.15
71151;BME280;59071;42.138;24.768;2024-02-28T11:38:39;100203.94;;;19.31;44.31
71151;BME280;59071;42.138;24.768;2024-02-28T11:41:04;100206.34;;;19.72;43.65
71151;BME280;59071;42.138;24.768;2024-02-28T11:43:34;100201.00;;;20.31;42.47
71151;BME280;59071;42.138;24.768;2024-02-28T11:46:08;100183.88;;;20.85;41.94
71151;BME280;59071;42.138;24.768;2024-02-28T11:48:33;100184.63;;;21.23;40.63
71151;BME280;59071;42.138;24.768;2024-02-28T11:50:59;100185.28;;;21.46;39.61
71151;BME280;59071;42.138;24.768;2024-02-28T11:53:25;100188.38;;;21.17;40.14
71151;BME280;59071;42.138;24.768;2024-02-28T11:55:52;100177.34;;;21.34;39.65
71151;BME280;59071;42.138;24.768;2024-02-28T11:58:17;100175.56;;;21.60;39.43
71151;BME280;59071;42.138;24.768;2024-02-28T12:00:50;100174.03;;;21.90;38.84
71151;BME280;59071;42.138;24.768;2024-02-28T12:03:25;100172.03;;;21.55;39.50
71151;BME280;59071;42.138;24.768;2024-02-28T12:05:52;100170.94;;;20.98;40.09
71151;BME280;59071;42.138;24.768;2024-02-28T12:08:18;100169.81;;;20.51;41.22
71151;BME280;59071;42.138;24.768;2024-02-28T12:10:45;100160.38;;;19.67;43.31
71151;BME280;59071;42.138;24.768;2024-02-28T12:13:10;100163.84;;;19.89;43.36
71151;BME280;59071;42.138;24.768;2024-02-28T12:15:38;100163.81;;;19.62;44.09
71151;BME280;59071;42.138;24.768;2024-02-28T12:18:09;100161.19;;;19.45;44.16
71151;BME280;59071;42.138;24.768;2024-02-28T12:20:35;100154.53;;;19.53;44.65
71151;BME280;59071;42.138;24.768;2024-02-28T12:23:02;100146.09;;;20.26;42.71
71151;BME280;59071;42.138;24.768;2024-02-28T12:25:28;100147.50;;;20.66;42.19
71151;BME280;59071;42.138;24.768;2024-02-28T12:27:54;100141.53;;;20.64;41.77
71151;BME280;59071;42.138;24.768;2024-02-28T12:30:19;100149.53;;;20.91;41.41
71151;BME280;59071;42.138;24.768;2024-02-28T12:32:44;100144.38;;;20.47;41.82
71151;BME280;59071;42.138;24.768;2024-02-28T12:35:10;100145.00;;;19.95;42.90
71151;BME280;59071;42.138;24.768;2024-02-28T12:37:35;100135.13;;;19.78;43.45
71151;BME280;59071;42.138;24.768;2024-02-28T12:40:00;100134.75;;;20.24;42.75